createdAt,value
2022-10-19T00:00:27.142Z,101738.28
2022-10-19T00:02:55.824Z,101745.88
2022-10-19T00:05:23.822Z,101768.44
2022-10-19T00:07:52.595Z,101733.97
2022-10-19T00:10:22.623Z,101738.91
2022-10-19T00:12:50.778Z,101770.50
2022-10-19T00:15:26.212Z,101711.81
2022-10-19T00:17:54.555Z,101767.88
2022-10-19T00:20:25.420Z,101714.28
2022-10-19T00:22:53.899Z,101702.78
2022-10-19T00:25:24.906Z,101714.06
2022-10-19T00:27:58.067Z,101718.81
2022-10-19T00:30:28.174Z,101716.34
2022-10-19T00:32:58.553Z,101705.63
2022-10-19T00:35:27.274Z,101734.78
2022-10-19T00:37:57.154Z,101710.97
2022-10-19T00:40:28.805Z,101728.00
2022-10-19T00:43:00.106Z,101705.81
2022-10-19T00:45:35.208Z,101713.81
2022-10-19T00:48:03.897Z,101705.38
2022-10-19T00:50:34.972Z,101715.00
2022-10-19T00:53:06.958Z,101716.03
2022-10-19T00:55:36.583Z,101730.59
2022-10-19T00:58:18.267Z,101702.03
2022-10-19T01:01:03.533Z,101707.59
2022-10-19T01:03:35.543Z,101732.22
2022-10-19T01:06:05.913Z,101701.66
2022-10-19T01:08:35.841Z,101749.91
2022-10-19T01:11:23.963Z,101689.13
2022-10-19T01:14:07.622Z,101692.22
2022-10-19T01:16:51.383Z,101706.59
2022-10-19T01:19:41.735Z,101713.75
2022-10-19T01:22:25.533Z,101737.56
2022-10-19T01:25:02.284Z,101705.53
2022-10-19T01:27:46.620Z,101725.88
2022-10-19T01:30:19.611Z,101697.94
2022-10-19T01:33:03.482Z,101698.13
2022-10-19T01:35:44.263Z,101713.38
2022-10-19T01:38:24.937Z,101679.69
2022-10-19T01:41:07.250Z,101727.13
2022-10-19T01:43:46.125Z,101703.09
2022-10-19T01:46:25.048Z,101682.56
2022-10-19T01:49:02.125Z,101714.56
2022-10-19T01:51:37.528Z,101671.44
2022-10-19T01:54:17.455Z,101723.63
2022-10-19T01:56:48.355Z,101702.66
2022-10-19T01:59:24.364Z,101681.06
2022-10-19T02:02:07.740Z,101700.56
2022-10-19T02:04:40.033Z,101682.03
2022-10-19T02:07:10.381Z,101693.97
2022-10-19T02:09:42.615Z,101681.00
2022-10-19T02:12:14.882Z,101683.53
2022-10-19T02:14:48.547Z,101666.06
2022-10-19T02:17:32.555Z,101664.41
2022-10-19T02:20:02.870Z,101665.22
2022-10-19T02:22:32.058Z,101659.47
2022-10-19T02:25:00.780Z,101702.97
2022-10-19T02:27:30.455Z,101670.09
2022-10-19T02:30:06.559Z,101679.94
2022-10-19T02:32:42.016Z,101647.94
2022-10-19T02:35:13.549Z,101691.94
2022-10-19T02:37:42.895Z,101660.97
2022-10-19T02:40:17.653Z,101644.75
2022-10-19T02:42:56.430Z,101622.59
2022-10-19T02:45:43.265Z,101630.41
2022-10-19T02:48:23.107Z,101638.63
2022-10-19T02:50:54.789Z,101645.16
2022-10-19T02:53:24.310Z,101602.47
2022-10-19T02:55:54.149Z,101635.31
2022-10-19T02:58:22.907Z,101617.31
2022-10-19T03:00:54.385Z,101603.72
2022-10-19T03:03:29.230Z,101595.31
2022-10-19T03:05:59.110Z,101618.53
2022-10-19T03:08:33.843Z,101620.19
2022-10-19T03:11:04.251Z,101608.69
2022-10-19T03:13:34.127Z,101623.25
2022-10-19T03:16:23.631Z,101578.31
2022-10-19T03:18:57.222Z,101581.34
2022-10-19T03:21:30.992Z,101604.97
2022-10-19T03:24:08.496Z,101591.44
2022-10-19T03:26:53.845Z,101641.88
2022-10-19T03:29:29.360Z,101622.56
2022-10-19T03:32:02.456Z,101593.78
2022-10-19T03:34:32.408Z,101590.09
2022-10-19T03:37:03.412Z,101596.25
2022-10-19T03:39:35.017Z,101595.84
2022-10-19T03:42:04.192Z,101588.84
2022-10-19T03:44:34.834Z,101588.69
2022-10-19T03:47:08.473Z,101607.34
2022-10-19T03:49:42.614Z,101599.94
2022-10-19T03:52:17.963Z,101611.63
2022-10-19T03:54:52.356Z,101588.25
2022-10-19T03:57:28.506Z,101589.84
2022-10-19T04:00:00.142Z,101619.22
2022-10-19T04:02:31.784Z,101613.22
2022-10-19T04:05:10.373Z,101602.72
2022-10-19T04:07:41.240Z,101604.19
2022-10-19T04:10:14.542Z,101605.81
2022-10-19T04:12:53.986Z,101610.31
2022-10-19T04:15:25.801Z,101626.75
2022-10-19T04:18:02.400Z,101594.13
2022-10-19T04:20:37.247Z,101642.97
2022-10-19T04:23:06.485Z,101588.16
2022-10-19T04:25:38.268Z,101602.34
2022-10-19T04:28:11.893Z,101595.19
2022-10-19T04:30:42.046Z,101632.72
2022-10-19T04:33:18.965Z,101606.47
2022-10-19T04:35:52.457Z,101588.84
2022-10-19T04:38:23.508Z,101586.97
2022-10-19T04:40:55.115Z,101620.41
2022-10-19T04:43:28.731Z,101632.75
2022-10-19T04:46:08.350Z,101622.84
2022-10-19T04:48:39.186Z,101596.56
2022-10-19T04:51:32.999Z,101625.34
2022-10-19T04:54:02.140Z,101618.31
2022-10-19T04:56:33.468Z,101589.16
2022-10-19T04:59:12.524Z,101609.28
2022-10-19T05:01:46.554Z,101610.31
2022-10-19T05:04:16.802Z,101614.22
2022-10-19T05:06:48.553Z,101564.94
2022-10-19T05:09:20.121Z,101576.41
2022-10-19T05:11:54.569Z,101588.72
2022-10-19T05:17:00.271Z,101564.69
2022-10-19T05:19:40.462Z,101587.53
2022-10-19T05:22:10.451Z,101556.09
2022-10-19T05:24:39.332Z,101548.50
2022-10-19T05:27:10.822Z,101570.31
2022-10-19T05:29:39.710Z,101577.50
2022-10-19T05:32:11.236Z,101570.69
2022-10-19T05:34:43.678Z,101576.00
2022-10-19T05:37:16.081Z,101548.06
2022-10-19T05:39:46.220Z,101571.09
2022-10-19T05:42:18.765Z,101545.19
2022-10-19T05:44:47.150Z,101563.47
2022-10-19T05:47:18.244Z,101575.50
2022-10-19T05:49:48.993Z,101568.91
2022-10-19T05:52:19.279Z,101611.00
2022-10-19T05:54:47.333Z,101544.69
2022-10-19T05:57:15.888Z,101590.28
2022-10-19T05:59:44.859Z,101601.78
2022-10-19T06:02:16.127Z,101562.75
2022-10-19T06:04:44.900Z,101562.56
2022-10-19T06:07:13.020Z,101552.09
2022-10-19T06:09:42.388Z,101557.81
2022-10-19T06:12:11.175Z,101575.28
2022-10-19T06:14:39.161Z,101560.69
2022-10-19T06:17:07.699Z,101538.13
2022-10-19T06:19:36.993Z,101564.41
2022-10-19T06:22:05.367Z,101583.31
2022-10-19T06:24:36.254Z,101544.28
2022-10-19T06:27:07.044Z,101558.84
2022-10-19T06:29:35.052Z,101568.06
2022-10-19T06:32:06.034Z,101563.34
2022-10-19T06:34:34.547Z,101558.81
2022-10-19T06:37:02.521Z,101570.53
2022-10-19T06:39:30.893Z,101583.72
2022-10-19T06:41:59.120Z,101546.78
2022-10-19T06:44:29.206Z,101577.00
2022-10-19T06:46:58.368Z,101550.44
2022-10-19T06:49:26.812Z,101563.56
2022-10-19T06:51:54.818Z,101564.88
2022-10-19T06:54:25.660Z,101515.81
2022-10-19T06:56:53.702Z,101555.88
2022-10-19T06:59:21.763Z,101538.03
2022-10-19T07:01:52.561Z,101512.16
2022-10-19T07:04:20.555Z,101524.69
2022-10-19T07:06:48.741Z,101506.44
2022-10-19T07:09:17.895Z,101536.19
2022-10-19T07:11:46.384Z,101575.97
2022-10-19T07:14:15.746Z,101523.44
2022-10-19T07:16:43.755Z,101562.03
2022-10-19T07:19:13.642Z,101541.06
2022-10-19T07:21:43.983Z,101529.56
2022-10-19T07:24:11.995Z,101561.19
2022-10-19T07:26:39.795Z,101526.91
2022-10-19T07:29:08.016Z,101570.06
2022-10-19T07:31:35.844Z,101557.38
2022-10-19T07:34:05.591Z,101589.19
2022-10-19T07:36:37.176Z,101574.03
2022-10-19T07:39:06.832Z,101556.47
2022-10-19T07:41:35.864Z,101570.88
2022-10-19T07:44:21.192Z,101559.22
2022-10-19T07:46:52.209Z,101543.47
2022-10-19T07:49:25.066Z,101503.88
2022-10-19T07:52:10.962Z,101513.19
2022-10-19T07:54:39.451Z,101486.78
2022-10-19T07:57:13.571Z,101507.06
2022-10-19T07:59:43.513Z,101533.34
2022-10-19T08:02:15.974Z,101498.09
2022-10-19T08:05:00.832Z,101527.84
2022-10-19T08:07:34.284Z,101524.59
2022-10-19T08:10:02.755Z,101531.97
2022-10-19T08:12:30.779Z,101523.16
2022-10-19T08:14:58.682Z,101518.03
2022-10-19T08:17:28.547Z,101501.44
2022-10-19T08:19:56.480Z,101492.84
2022-10-19T08:22:24.811Z,101492.88
2022-10-19T08:24:54.203Z,101506.00
2022-10-19T08:27:22.163Z,101506.81
2022-10-19T08:29:50.628Z,101512.97
2022-10-19T08:32:19.376Z,101538.78
2022-10-19T08:34:47.313Z,101523.00
2022-10-19T08:37:25.804Z,101515.81
2022-10-19T08:40:06.610Z,101481.00
2022-10-19T08:42:52.207Z,101496.97
2022-10-19T08:48:26.486Z,101507.19
2022-10-19T08:50:57.082Z,101492.47
2022-10-19T08:56:51.117Z,101471.53
2022-10-19T08:59:29.782Z,101480.72
2022-10-19T09:02:01.290Z,101489.13
2022-10-19T09:04:34.038Z,101461.66
2022-10-19T09:07:21.144Z,101474.31
2022-10-19T09:09:55.340Z,101486.59
2022-10-19T09:12:37.228Z,101480.03
2022-10-19T09:15:08.818Z,101477.31
2022-10-19T09:17:36.699Z,101456.22
2022-10-19T09:20:17.249Z,101487.66
2022-10-19T09:22:46.066Z,101485.41
2022-10-19T09:25:26.933Z,101447.88
2022-10-19T09:28:16.955Z,101449.59
2022-10-19T09:31:06.350Z,101451.75
2022-10-19T09:33:38.301Z,101427.97
2022-10-19T09:36:10.399Z,101462.56
2022-10-19T09:38:40.174Z,101458.66
2022-10-19T09:41:19.354Z,101481.28
2022-10-19T09:43:54.548Z,101455.44
2022-10-19T09:46:32.215Z,101431.25
2022-10-19T09:49:02.466Z,101443.47
2022-10-19T09:51:41.798Z,101454.03
2022-10-19T09:54:32.350Z,101472.84
2022-10-19T09:57:00.392Z,101461.72
2022-10-19T10:02:23.810Z,101466.94
2022-10-19T10:04:57.665Z,101439.88
2022-10-19T10:07:33.972Z,101429.34
2022-10-19T10:10:02.204Z,101444.38
2022-10-19T10:12:30.032Z,101421.28
2022-10-19T10:14:59.602Z,101438.81
2022-10-19T10:17:31.794Z,101422.56
2022-10-19T10:20:20.401Z,101426.72
2022-10-19T10:22:57.317Z,101379.69
2022-10-19T10:25:33.434Z,101376.75
2022-10-19T10:28:04.171Z,101393.06
2022-10-19T10:30:37.039Z,101377.94
2022-10-19T10:33:13.460Z,101404.44
2022-10-19T10:35:56.377Z,101400.06
2022-10-19T10:38:34.961Z,101398.34
2022-10-19T10:41:07.937Z,101383.19
2022-10-19T10:43:41.391Z,101382.44
2022-10-19T10:46:21.711Z,101407.28
2022-10-19T10:48:57.510Z,101374.16
2022-10-19T10:51:33.857Z,101379.59
2022-10-19T10:54:16.701Z,101388.56
2022-10-19T10:56:46.695Z,101375.72
2022-10-19T10:59:20.653Z,101375.94
2022-10-19T11:01:59.883Z,101369.31
2022-10-19T11:04:36.162Z,101387.03
2022-10-19T11:07:16.774Z,101333.63
2022-10-19T11:09:47.829Z,101353.41
2022-10-19T11:12:20.296Z,101362.88
2022-10-19T11:14:52.455Z,101354.84
2022-10-19T11:17:26.840Z,101345.88
2022-10-19T11:19:55.719Z,101354.16
2022-10-19T11:22:43.177Z,101297.41
2022-10-19T11:25:28.708Z,101322.47
2022-10-19T11:28:02.631Z,101332.88
2022-10-19T11:30:35.008Z,101318.31
2022-10-19T11:33:15.556Z,101311.22
2022-10-19T11:35:53.118Z,101307.94
2022-10-19T11:38:33.091Z,101312.38
2022-10-19T11:41:18.623Z,101278.97
2022-10-19T11:43:57.853Z,101268.50
2022-10-19T11:46:33.821Z,101270.34
2022-10-19T11:49:14.315Z,101255.09
2022-10-19T11:51:49.925Z,101282.34
2022-10-19T11:54:33.494Z,101273.50
2022-10-19T11:57:11.677Z,101283.63
2022-10-19T11:59:51.367Z,101269.19
2022-10-19T12:02:58.507Z,101283.84
2022-10-19T12:05:35.157Z,101266.84
2022-10-19T12:08:23.169Z,101237.16
2022-10-19T12:11:03.280Z,101236.81
2022-10-19T12:13:37.763Z,101234.13
2022-10-19T12:16:07.075Z,101250.44
2022-10-19T12:18:40.533Z,101255.88
2022-10-19T12:21:15.777Z,101260.91
2022-10-19T12:23:47.243Z,101237.03
2022-10-19T12:28:52.170Z,101232.13
2022-10-19T12:31:23.145Z,101242.84
2022-10-19T12:33:59.056Z,101230.00
2022-10-19T12:36:36.960Z,101225.72
2022-10-19T12:39:13.441Z,101228.84
2022-10-19T12:41:47.142Z,101212.75
2022-10-19T12:44:34.181Z,101229.38
2022-10-19T12:47:11.228Z,101214.13
2022-10-19T12:49:46.842Z,101216.66
2022-10-19T12:52:18.878Z,101206.25
2022-10-19T12:54:47.467Z,101198.47
2022-10-19T12:57:29.916Z,101178.06
2022-10-19T13:00:05.204Z,101195.31
2022-10-19T13:02:39.157Z,101196.00
2022-10-19T13:05:08.167Z,101187.69
2022-10-19T13:07:38.105Z,101188.75
2022-10-19T13:10:10.162Z,101169.34
2022-10-19T13:12:47.163Z,101178.41
2022-10-19T13:15:51.911Z,101191.53
2022-10-19T13:19:07.480Z,101167.88
2022-10-19T13:21:46.702Z,101163.91
2022-10-19T13:24:29.297Z,101139.44
2022-10-19T13:27:40.677Z,101175.34
2022-10-19T13:30:54.602Z,101169.19
2022-10-19T13:33:52.382Z,101153.06
2022-10-19T13:36:22.045Z,101134.94
2022-10-19T13:39:06.569Z,101146.00
2022-10-19T13:42:00.149Z,101144.56
2022-10-19T13:44:35.872Z,101139.59
2022-10-19T13:47:25.460Z,101114.00
2022-10-19T13:50:07.864Z,101124.09
2022-10-19T13:52:59.663Z,101136.00
2022-10-19T14:04:04.554Z,101091.16
2022-10-19T14:06:37.631Z,101086.84
2022-10-19T14:09:48.418Z,101122.09
2022-10-19T14:12:24.038Z,101086.78
2022-10-19T14:14:53.822Z,101079.28
2022-10-19T14:17:25.823Z,101105.31
2022-10-19T14:19:58.096Z,101072.88
2022-10-19T14:22:30.209Z,101089.69
2022-10-19T14:25:03.503Z,101097.41
2022-10-19T14:27:33.343Z,101089.59
2022-10-19T14:30:01.952Z,101083.69
2022-10-19T14:35:23.049Z,101086.28
2022-10-19T14:37:52.010Z,101080.03
2022-10-19T14:40:30.795Z,101083.03
2022-10-19T14:43:00.482Z,101052.47
2022-10-19T14:45:30.704Z,101047.16
2022-10-19T14:48:01.519Z,101051.81
2022-10-19T14:50:44.354Z,101031.50
2022-10-19T14:53:26.020Z,101064.47
2022-10-19T14:55:58.218Z,101046.94
2022-10-19T14:58:28.238Z,101033.94
2022-10-19T15:00:56.822Z,101023.31
2022-10-19T15:03:31.934Z,101054.41
2022-10-19T15:06:10.240Z,101014.75
2022-10-19T15:08:42.913Z,101020.13
2022-10-19T15:11:23.458Z,101009.41
2022-10-19T15:13:59.714Z,101012.66
2022-10-19T15:16:47.135Z,100986.59
2022-10-19T15:19:27.557Z,100998.06
2022-10-19T15:22:15.731Z,100985.38
2022-10-19T15:24:57.940Z,100989.44
2022-10-19T15:27:32.168Z,100977.72
2022-10-19T15:30:02.807Z,100971.91
2022-10-19T15:32:35.315Z,100985.41
2022-10-19T15:35:12.533Z,100987.91
2022-10-19T15:37:46.299Z,100999.44
2022-10-19T15:40:21.432Z,100998.06
2022-10-19T15:42:49.396Z,100981.00
2022-10-19T15:45:35.893Z,100990.75
2022-10-19T15:48:25.300Z,100957.78
2022-10-19T15:50:54.199Z,100974.59
2022-10-19T15:53:24.163Z,100927.38
2022-10-19T15:55:52.001Z,100970.63
2022-10-19T15:58:21.641Z,100942.41
2022-10-19T16:00:49.976Z,100970.63
2022-10-19T16:03:17.757Z,100976.78
2022-10-19T16:05:46.311Z,100952.94
2022-10-19T16:08:14.970Z,100965.69
2022-10-19T16:10:44.216Z,100958.38
2022-10-19T16:13:12.561Z,100962.13
2022-10-19T16:15:40.378Z,100949.00
2022-10-19T16:18:08.194Z,100942.72
2022-10-19T16:20:36.477Z,100922.09
2022-10-19T16:23:04.345Z,100954.81
2022-10-19T16:25:32.469Z,100909.34
2022-10-19T16:28:02.233Z,100917.47
2022-10-19T16:30:30.088Z,100943.13
2022-10-19T16:32:58.361Z,100947.13
2022-10-19T16:35:26.327Z,100943.28
2022-10-19T16:37:54.192Z,100926.00
2022-10-19T16:40:22.766Z,100925.41
2022-10-19T16:42:50.568Z,100918.34
2022-10-19T23:46:13.263Z,100545.56
2022-10-19T23:48:47.713Z,100486.28
2022-10-19T23:51:46.209Z,100516.28
2022-10-19T23:54:35.378Z,100487.97
2022-10-19T23:57:24.066Z,100485.53
